Time;durP1;ratioP1;P1;durP2;ratioP2;P2;SDS_P1;SDS_P2;PMS_P1;PMS_P2;Temp;Humidity;BMP_temperature;BMP_pressure;BME280_temperature;BME280_humidity;BME280_pressure;Samples;Min_cycle;Max_cycle;Signal;HPM_P1;HPM_P2
2023/12/14 00:00:13;;;;;;;7.5;5.5;;;;;;;3.91;99.8584;926.2188;;;;
2023/12/14 00:02:43;;;;;;;6.4;4.9;;;;;;;3.84;100;926.2855;;;;
2023/12/14 00:05:22;;;;;;;6.8;4.8;;;;;;;3.77;100;926.3187;;;;
2023/12/14 00:08:11;;;;;;;5.7;4.7;;;;;;;3.78;100;926.3094;;;;
2023/12/14 00:10:36;;;;;;;8.9;5.5;;;;;;;3.8;100;926.2381;;;;
2023/12/14 00:13:14;;;;;;;7.5;4.9;;;;;;;3.88;100;926.3892;;;;
2023/12/14 00:15:56;;;;;;;7.5;4.7;;;;;;;3.81;100;926.3519;;;;
2023/12/14 00:18:29;;;;;;;6.2;4.5;;;;;;;3.81;100;926.4565;;;;
2023/12/14 00:21:00;;;;;;;6.9;4.6;;;;;;;3.71;100;926.4832;;;;
2023/12/14 00:23:29;;;;;;;7.2;4.6;;;;;;;3.71;100;926.5627;;;;
2023/12/14 00:26:03;;;;;;;6;4.2;;;;;;;3.82;99.80176;926.574;;;;
2023/12/14 00:28:37;;;;;;;5.2;3.4;;;;;;;3.81;99.59766;926.5944;;;;
2023/12/14 00:31:11;;;;;;;4.3;3.3;;;;;;;3.63;99.68066;926.5513;;;;
2023/12/14 00:33:44;;;;;;;3.8;2.8;;;;;;;3.75;99.30566;926.5712;;;;
2023/12/14 00:36:09;;;;;;;3.4;2.7;;;;;;;3.6;99.68359;926.6392;;;;
2023/12/14 00:38:41;;;;;;;4.4;3.1;;;;;;;3.68;99.51172;926.6583;;;;
2023/12/14 00:41:09;;;;;;;3.4;2.8;;;;;;;3.57;99.47461;926.7215;;;;
2023/12/14 00:43:38;;;;;;;4.1;3.1;;;;;;;3.5;99.69434;926.7422;;;;
2023/12/14 00:46:01;;;;;;;5.5;3.5;;;;;;;3.48;99.74609;926.8191;;;;
2023/12/14 00:48:30;;;;;;;4;3.1;;;;;;;3.38;99.58789;926.7793;;;;
2023/12/14 00:50:55;;;;;;;5.6;3.7;;;;;;;3.32;99.74121;926.779;;;;
2023/12/14 00:53:24;;;;;;;3.9;2.7;;;;;;;3.31;99.62695;926.8269;;;;
2023/12/14 00:55:48;;;;;;;3.5;2.9;;;;;;;3.33;99.55273;926.9239;;;;
2023/12/14 00:58:16;;;;;;;3.4;2.8;;;;;;;3.28;99.82227;926.9727;;;;
2023/12/14 01:00:41;;;;;;;4.9;3.1;;;;;;;3.32;99.69629;927.0126;;;;
2023/12/14 01:03:11;;;;;;;6.7;3.9;;;;;;;3.33;99.94727;927.0695;;;;
2023/12/14 01:05:36;;;;;;;6;4;;;;;;;3.34;99.58887;927.1333;;;;
2023/12/14 01:08:02;;;;;;;7.2;4;;;;;;;3.27;99.54004;927.1677;;;;
2023/12/14 01:10:27;;;;;;;5.5;3.8;;;;;;;3.36;99.31445;927.1928;;;;
2023/12/14 01:12:54;;;;;;;7.8;4.9;;;;;;;3.35;99.28711;927.327;;;;
2023/12/14 01:15:31;;;;;;;9.6;5.7;;;;;;;3.36;99.45801;927.2548;;;;
2023/12/14 01:18:00;;;;;;;10.1;5.8;;;;;;;3.26;99.63672;927.36;;;;
2023/12/14 01:20:25;;;;;;;10.1;6.5;;;;;;;3.29;99.78906;927.4188;;;;
2023/12/14 01:22:59;;;;;;;9.2;5.7;;;;;;;3.28;99.51953;927.4494;;;;
2023/12/14 01:25:33;;;;;;;9.8;5.6;;;;;;;3.22;99.99902;927.5111;;;;
2023/12/14 01:28:00;;;;;;;11.4;6.5;;;;;;;3.23;99.9873;927.5356;;;;
2023/12/14 01:30:24;;;;;;;12;6.8;;;;;;;3.24;100;927.5767;;;;
2023/12/14 01:32:54;;;;;;;11.1;6.6;;;;;;;3.3;100;927.5614;;;;
2023/12/14 01:35:19;;;;;;;11.8;6.3;;;;;;;3.45;99.7168;927.577;;;;
2023/12/14 01:37:47;;;;;;;9.6;5.5;;;;;;;3.47;99.41992;927.5421;;;;
2023/12/14 01:40:11;;;;;;;13.9;5.7;;;;;;;3.5;99.09863;927.5772;;;;
2023/12/14 01:42:39;;;;;;;10.6;5.4;;;;;;;3.34;99.59082;927.6158;;;;
2023/12/14 01:45:05;;;;;;;8.2;5.5;;;;;;;3.4;99.56934;927.5978;;;;
2023/12/14 01:47:30;;;;;;;8.1;4.8;;;;;;;3.3;99.64746;927.6501;;;;
2023/12/14 01:49:56;;;;;;;9.7;4.8;;;;;;;3.31;99.36621;927.6063;;;;
2023/12/14 01:52:21;;;;;;;9.3;4.9;;;;;;;3.24;99.60059;927.6412;;;;
2023/12/14 01:54:47;;;;;;;9.2;5;;;;;;;3.28;99.56445;927.5973;;;;
2023/12/14 01:57:13;;;;;;;9.5;4.9;;;;;;;3.29;99.47656;927.7759;;;;
2023/12/14 01:59:43;;;;;;;8;4.5;;;;;;;3.44;98.99609;927.7932;;;;
2023/12/14 02:02:08;;;;;;;6.7;4;;;;;;;3.34;99.49902;927.8162;;;;
2023/12/14 02:04:34;;;;;;;7.1;4.6;;;;;;;3.25;99.85938;927.8427;;;;
2023/12/14 02:07:00;;;;;;;6.4;4.4;;;;;;;3.24;100;927.8717;;;;
2023/12/14 02:09:31;;;;;;;6.9;4.3;;;;;;;3.29;100;927.9584;;;;
2023/12/14 02:12:00;;;;;;;7;4;;;;;;;3.24;100;927.9055;;;;
2023/12/14 02:14:25;;;;;;;7.1;3.8;;;;;;;3.25;100;927.9633;;;;
2023/12/14 02:16:55;;;;;;;6;3.9;;;;;;;3.3;100;927.9217;;;;
2023/12/14 02:19:20;;;;;;;6.5;4;;;;;;;3.31;100;927.9792;;;;
2023/12/14 02:21:46;;;;;;;6.2;4;;;;;;;3.39;100;928.1523;;;;
2023/12/14 02:24:11;;;;;;;5.9;4;;;;;;;3.44;100;928.0553;;;;
2023/12/14 02:26:44;;;;;;;5.6;3.8;;;;;;;3.41;100;928.1278;;;;
2023/12/14 02:29:20;;;;;;;4.8;3.3;;;;;;;3.59;99.51465;928.1872;;;;
2023/12/14 02:31:52;;;;;;;5.5;3.4;;;;;;;3.56;99.25684;928.1716;;;;
2023/12/14 02:34:18;;;;;;;4.8;2.9;;;;;;;3.51;99.68457;928.1974;;;;
2023/12/14 02:36:48;;;;;;;3.8;2.4;;;;;;;3.42;100;928.3365;;;;
2023/12/14 02:39:16;;;;;;;3.6;2.6;;;;;;;3.5;99.98633;928.2815;;;;
2023/12/14 02:41:42;;;;;;;3.7;2.6;;;;;;;3.56;99.78516;928.2645;;;;
2023/12/14 02:44:07;;;;;;;4.7;2.6;;;;;;;3.55;99.77148;928.313;;;;
2023/12/14 02:46:33;;;;;;;3.8;2.6;;;;;;;3.47;99.96582;928.3547;;;;
2023/12/14 02:48:59;;;;;;;4.6;3;;;;;;;3.39;100;928.371;;;;
2023/12/14 02:51:26;;;;;;;4.4;3;;;;;;;3.44;100;928.4045;;;;
2023/12/14 02:53:51;;;;;;;4.4;3.1;;;;;;;3.55;100;928.4871;;;;
2023/12/14 02:56:19;;;;;;;4.1;3.2;;;;;;;3.7;99.67285;928.5421;;;;
2023/12/14 02:58:49;;;;;;;5;3.2;;;;;;;3.69;99.46875;928.4734;;;;
2023/12/14 03:01:10;;;;;;;4.9;3.5;;;;;;;3.57;100;928.3834;;;;
2023/12/14 03:03:36;;;;;;;4.1;3.4;;;;;;;3.51;100;928.4776;;;;
2023/12/14 03:06:01;;;;;;;3.6;3.1;;;;;;;3.48;100;928.4636;;;;
2023/12/14 03:08:26;;;;;;;7.1;3.4;;;;;;;3.45;100;928.5905;;;;
2023/12/14 03:10:51;;;;;;;5.1;3.1;;;;;;;3.47;100;928.4816;;;;
2023/12/14 03:13:21;;;;;;;4.6;3.2;;;;;;;3.48;100;928.6597;;;;
2023/12/14 03:15:51;;;;;;;6;3.4;;;;;;;3.48;100;928.6541;;;;
2023/12/14 03:18:19;;;;;;;5.3;3.5;;;;;;;3.68;100;928.6401;;;;
2023/12/14 03:20:48;;;;;;;4.8;2.9;;;;;;;3.68;100;928.7213;;;;
2023/12/14 03:23:16;;;;;;;4.1;3;;;;;;;3.66;100;928.7098;;;;
2023/12/14 03:25:46;;;;;;;3.5;2.9;;;;;;;3.64;100;928.7449;;;;
2023/12/14 03:28:12;;;;;;;2.7;2.3;;;;;;;3.59;100;928.7687;;;;
2023/12/14 03:30:37;;;;;;;3.7;2.6;;;;;;;3.56;100;928.8311;;;;
2023/12/14 03:33:07;;;;;;;4.5;2.4;;;;;;;3.57;100;928.91;;;;
2023/12/14 03:35:33;;;;;;;3.4;2.6;;;;;;;3.55;100;928.945;;;;
2023/12/14 03:37:58;;;;;;;3.8;2.4;;;;;;;3.63;100;928.9674;;;;
2023/12/14 03:40:25;;;;;;;3.2;2.5;;;;;;;3.63;100;928.9579;;;;
2023/12/14 03:42:51;;;;;;;3.5;2.8;;;;;;;3.59;100;929.019;;;;
2023/12/14 03:45:21;;;;;;;3.6;3;;;;;;;3.6;100;929.072;;;;
2023/12/14 03:47:50;;;;;;;3.8;2.9;;;;;;;3.57;100;929.0641;;;;
2023/12/14 03:50:15;;;;;;;3.3;2.8;;;;;;;3.6;100;929.1183;;;;
2023/12/14 03:52:42;;;;;;;5.9;3.2;;;;;;;3.59;100;929.1655;;;;
2023/12/14 03:55:07;;;;;;;3.7;2.9;;;;;;;3.65;100;929.1818;;;;
2023/12/14 03:57:36;;;;;;;3.8;2.7;;;;;;;3.62;100;929.2072;;;;
2023/12/14 04:00:04;;;;;;;3.3;2.6;;;;;;;3.64;100;929.2817;;;;
2023/12/14 04:02:35;;;;;;;4.2;2.8;;;;;;;3.64;100;929.2762;;;;
2023/12/14 04:05:00;;;;;;;3.6;2.6;;;;;;;3.65;100;929.2891;;;;
2023/12/14 04:07:29;;;;;;;4;3;;;;;;;3.65;100;929.4141;;;;
2023/12/14 04:09:58;;;;;;;5;3;;;;;;;3.67;100;929.409;;;;
2023/12/14 04:12:26;;;;;;;5;3.6;;;;;;;3.66;100;929.5048;;;;
2023/12/14 04:14:55;;;;;;;4.9;3.4;;;;;;;3.69;100;929.5305;;;;
2023/12/14 04:17:20;;;;;;;3.4;2.6;;;;;;;3.66;100;929.5292;;;;
2023/12/14 04:19:46;;;;;;;4;2.5;;;;;;;3.69;100;929.5557;;;;
2023/12/14 04:22:10;;;;;;;4.2;2.8;;;;;;;3.68;100;929.55;;;;
2023/12/14 04:24:35;;;;;;;4.4;2.8;;;;;;;3.71;100;929.6184;;;;
2023/12/14 04:27:06;;;;;;;3.4;2.5;;;;;;;3.69;100;929.6795;;;;
2023/12/14 04:29:40;;;;;;;4.7;2.8;;;;;;;3.69;100;929.7573;;;;
2023/12/14 04:32:05;;;;;;;5.4;3.1;;;;;;;3.68;100;929.8075;;;;
2023/12/14 04:34:31;;;;;;;3.9;2.7;;;;;;;3.7;100;929.834;;;;
2023/12/14 04:37:04;;;;;;;4.5;2.9;;;;;;;3.74;100;929.8481;;;;
2023/12/14 04:39:36;;;;;;;4.8;3.3;;;;;;;3.81;100;929.8892;;;;
2023/12/14 04:42:02;;;;;;;5.1;3.4;;;;;;;3.77;100;929.9448;;;;
2023/12/14 04:44:30;;;;;;;4.7;3.3;;;;;;;3.79;100;929.9783;;;;
2023/12/14 04:46:55;;;;;;;4.4;2.9;;;;;;;3.77;100;929.9724;;;;
2023/12/14 04:49:23;;;;;;;4.2;3.2;;;;;;;3.77;100;929.9842;;;;
2023/12/14 04:51:48;;;;;;;4.3;2.6;;;;;;;3.74;100;930.0331;;;;
2023/12/14 04:54:13;;;;;;;3.9;2.5;;;;;;;3.74;100;930.0684;;;;
2023/12/14 04:56:44;;;;;;;2.5;2.2;;;;;;;3.79;100;930.1309;;;;
2023/12/14 04:59:07;;;;;;;3.1;2.4;;;;;;;3.79;100;930.2216;;;;
2023/12/14 05:01:39;;;;;;;5.9;4.5;;;;;;;3.83;100;930.2274;;;;
2023/12/14 05:04:09;;;;;;;8.3;6.6;;;;;;;3.8;100;930.2626;;;;
2023/12/14 05:06:35;;;;;;;6.8;5.7;;;;;;;3.81;100;930.3325;;;;
2023/12/14 05:09:02;;;;;;;17;13.1;;;;;;;3.77;100;930.3212;;;;
2023/12/14 05:11:25;;;;;;;10.1;7.2;;;;;;;3.73;100;930.3597;;;;
2023/12/14 05:13:53;;;;;;;7.6;5.2;;;;;;;3.8;100;930.3453;;;;
2023/12/14 05:16:18;;;;;;;6.3;4.7;;;;;;;3.82;100;930.3728;;;;
2023/12/14 05:18:45;;;;;;;5.2;3.8;;;;;;;3.82;100;930.3209;;;;
2023/12/14 05:21:11;;;;;;;3.8;3.4;;;;;;;3.82;100;930.4783;;;;
2023/12/14 05:23:38;;;;;;;4.2;3.5;;;;;;;3.84;100;930.4764;;;;
2023/12/14 05:26:03;;;;;;;6.7;5;;;;;;;3.81;100;930.5631;;;;
2023/12/14 05:28:28;;;;;;;5.6;4.7;;;;;;;3.78;100;930.6497;;;;
2023/12/14 05:30:55;;;;;;;5.1;4.6;;;;;;;3.78;100;930.6277;;;;
2023/12/14 05:33:20;;;;;;;7;5.4;;;;;;;3.78;100;930.6913;;;;
2023/12/14 05:35:57;;;;;;;16.8;10.2;;;;;;;3.82;100;930.6744;;;;
2023/12/14 05:38:22;;;;;;;15.8;9.4;;;;;;;3.83;100;930.822;;;;
2023/12/14 05:40:47;;;;;;;14.3;8.5;;;;;;;3.86;100;930.8311;;;;
2023/12/14 05:43:17;;;;;;;15;9.5;;;;;;;3.85;100;930.9122;;;;
2023/12/14 05:45:46;;;;;;;14.2;9.6;;;;;;;3.85;100;930.9483;;;;
2023/12/14 05:48:13;;;;;;;18.3;12.5;;;;;;;3.84;100;930.9922;;;;
2023/12/14 05:50:38;;;;;;;17.1;12.1;;;;;;;3.82;100;931.0328;;;;
2023/12/14 05:53:07;;;;;;;12.2;8.2;;;;;;;3.84;100;931.0521;;;;
2023/12/14 05:55:34;;;;;;;9.2;6.2;;;;;;;3.83;100;931.1385;;;;
2023/12/14 05:58:03;;;;;;;9.6;5.5;;;;;;;3.83;100;931.1849;;;;
2023/12/14 06:00:28;;;;;;;8.3;4.8;;;;;;;3.85;100;931.2673;;;;
2023/12/14 06:03:05;;;;;;;7.9;4.8;;;;;;;3.9;100;931.3094;;;;
2023/12/14 06:05:58;;;;;;;5;2.9;;;;;;;3.96;100;931.3605;;;;
2023/12/14 06:08:36;;;;;;;2.8;2.6;;;;;;;3.99;100;931.4436;;;;
2023/12/14 06:11:01;;;;;;;4.2;3.5;;;;;;;4.02;100;931.436;;;;
2023/12/14 06:13:35;;;;;;;4.3;3.4;;;;;;;4.1;100;931.4851;;;;
2023/12/14 06:16:16;;;;;;;4;2.8;;;;;;;4.19;100;931.5381;;;;
2023/12/14 06:18:43;;;;;;;4.4;3;;;;;;;4.14;100;931.5616;;;;
2023/12/14 06:21:06;;;;;;;4.9;4;;;;;;;4.04;100;931.6309;;;;
2023/12/14 06:23:31;;;;;;;5.5;3.6;;;;;;;4.01;100;931.683;;;;
2023/12/14 06:26:03;;;;;;;5.9;4.2;;;;;;;3.99;100;931.6028;;;;
2023/12/14 06:28:24;;;;;;;8.8;4.4;;;;;;;3.97;100;931.7189;;;;
2023/12/14 06:30:51;;;;;;;6.9;3.9;;;;;;;3.98;100;931.7861;;;;
2023/12/14 06:33:17;;;;;;;8.4;6.2;;;;;;;3.94;100;931.7961;;;;
2023/12/14 06:35:47;;;;;;;9.7;6.6;;;;;;;3.94;100;931.8702;;;;
2023/12/14 06:38:19;;;;;;;9.5;6.3;;;;;;;3.95;100;931.8262;;;;
2023/12/14 06:40:45;;;;;;;6.7;5.1;;;;;;;3.93;100;931.9053;;;;
2023/12/14 06:43:12;;;;;;;6.1;4.2;;;;;;;3.9;100;931.9543;;;;
2023/12/14 06:45:37;;;;;;;6.1;4.2;;;;;;;3.97;100;931.9781;;;;
2023/12/14 06:48:03;;;;;;;7;5.5;;;;;;;3.97;100;931.9702;;;;
2023/12/14 06:50:32;;;;;;;20.1;17.5;;;;;;;4.04;100;932.1297;;;;
2023/12/14 06:52:57;;;;;;;34.3;27.5;;;;;;;3.99;100;932.195;;;;
2023/12/14 06:55:29;;;;;;;26.7;20.7;;;;;;;4.02;100;932.182;;;;
2023/12/14 06:57:58;;;;;;;21.7;13.8;;;;;;;4.03;100;932.1844;;;;
2023/12/14 07:00:24;;;;;;;17.4;11.5;;;;;;;4.05;100;932.252;;;;
2023/12/14 07:02:54;;;;;;;14.1;8.8;;;;;;;4.03;100;932.3066;;;;
2023/12/14 07:05:19;;;;;;;13.6;8.6;;;;;;;4.06;100;932.3411;;;;
2023/12/14 07:07:46;;;;;;;11.2;7;;;;;;;4.09;100;932.345;;;;
2023/12/14 07:10:11;;;;;;;9.6;6.7;;;;;;;4.07;100;932.4187;;;;
2023/12/14 07:12:38;;;;;;;8;6.3;;;;;;;4.16;100;932.4348;;;;
2023/12/14 07:15:13;;;;;;;7.1;5.8;;;;;;;4.19;100;932.3851;;;;
2023/12/14 07:17:30;;;;;;;7.8;5.9;;;;;;;4.27;100;932.4717;;;;
2023/12/14 07:20:00;;;;;;;9;6;;;;;;;4.14;100;932.5181;;;;
2023/12/14 07:22:28;;;;;;;8.2;5.5;;;;;;;4.08;100;932.5386;;;;
2023/12/14 07:24:52;;;;;;;9.1;6.1;;;;;;;4.07;100;932.5959;;;;
2023/12/14 07:27:25;;;;;;;16.2;9.9;;;;;;;4.08;100;932.63;;;;
2023/12/14 07:30:01;;;;;;;16.1;9.4;;;;;;;4.05;100;932.593;;;;
2023/12/14 07:32:31;;;;;;;15;9;;;;;;;4.09;100;932.7988;;;;
2023/12/14 07:34:56;;;;;;;9.9;6.8;;;;;;;4.09;100;932.7271;;;;
2023/12/14 07:37:28;;;;;;;10.3;5.9;;;;;;;4.1;100;932.8069;;;;
2023/12/14 07:39:58;;;;;;;7.3;4.4;;;;;;;4.05;100;932.8318;;;;
2023/12/14 07:42:23;;;;;;;6.5;4.4;;;;;;;4.06;100;932.8809;;;;
2023/12/14 07:44:51;;;;;;;4.9;3.5;;;;;;;4.08;100;932.9617;;;;
2023/12/14 07:47:23;;;;;;;4.5;3.6;;;;;;;4.12;100;933.0391;;;;
2023/12/14 07:49:48;;;;;;;5.9;4.3;;;;;;;4.16;100;933.0833;;;;
2023/12/14 07:52:14;;;;;;;6.3;3.8;;;;;;;4.18;100;933.1153;;;;
2023/12/14 07:54:40;;;;;;;5.5;4.1;;;;;;;4.22;100;933.1403;;;;
2023/12/14 07:57:10;;;;;;;6.4;4.2;;;;;;;4.26;100;933.1609;;;;
2023/12/14 07:59:39;;;;;;;9.4;5.7;;;;;;;4.24;100;933.1597;;;;
2023/12/14 08:03:59;;;;;;;7.3;5.2;;;;;;;4.21;100;933.2211;;;;
2023/12/14 08:06:24;;;;;;;8.7;5.5;;;;;;;4.24;100;933.2881;;;;
2023/12/14 08:08:49;;;;;;;8.5;5.7;;;;;;;4.25;100;933.2908;;;;
2023/12/14 08:11:18;;;;;;;7;5.3;;;;;;;4.29;100;933.2619;;;;
2023/12/14 08:13:48;;;;;;;8.2;5.4;;;;;;;4.32;100;933.3531;;;;
2023/12/14 08:16:13;;;;;;;6.8;5.3;;;;;;;4.34;100;933.3787;;;;
2023/12/14 08:18:45;;;;;;;9.8;6.1;;;;;;;4.43;100;933.4216;;;;
2023/12/14 08:21:13;;;;;;;12.1;7.3;;;;;;;4.42;100;933.4724;;;;
2023/12/14 08:23:38;;;;;;;13.8;8.5;;;;;;;4.41;100;933.4724;;;;
2023/12/14 08:26:06;;;;;;;16.9;10.1;;;;;;;4.41;100;933.5306;;;;
2023/12/14 08:28:39;;;;;;;15.9;10.5;;;;;;;4.39;100;933.5125;;;;
2023/12/14 08:31:04;;;;;;;18.5;10.6;;;;;;;4.48;100;933.5701;;;;
2023/12/14 08:33:33;;;;;;;17.6;9.5;;;;;;;4.49;100;933.6208;;;;
2023/12/14 08:36:08;;;;;;;16.6;9.5;;;;;;;4.5;100;933.6605;;;;
2023/12/14 08:38:34;;;;;;;15.4;8.6;;;;;;;4.53;100;933.6431;;;;
2023/12/14 08:40:58;;;;;;;15.8;9.3;;;;;;;4.53;100;933.7133;;;;
2023/12/14 08:43:28;;;;;;;12.6;8.3;;;;;;;4.55;100;933.7603;;;;
2023/12/14 08:45:55;;;;;;;12.9;8.5;;;;;;;4.55;100;933.7848;;;;
2023/12/14 08:48:20;;;;;;;14.3;8.7;;;;;;;4.62;100;933.7969;;;;
2023/12/14 08:50:45;;;;;;;13.5;8;;;;;;;4.64;100;933.8653;;;;
2023/12/14 08:53:16;;;;;;;9.2;6.9;;;;;;;4.68;100;933.8779;;;;
2023/12/14 08:55:41;;;;;;;10.7;6.3;;;;;;;4.67;100;933.9188;;;;
2023/12/14 08:58:09;;;;;;;11.1;6.9;;;;;;;4.75;100;933.9996;;;;
2023/12/14 09:00:33;;;;;;;14.1;8.5;;;;;;;4.81;100;933.9366;;;;
2023/12/14 09:02:59;;;;;;;16.6;8.7;;;;;;;4.91;100;933.9239;;;;
2023/12/14 09:05:26;;;;;;;15.1;9.1;;;;;;;4.99;100;933.9969;;;;
2023/12/14 09:07:52;;;;;;;19.4;10.8;;;;;;;5.07;100;934.0517;;;;
2023/12/14 09:10:15;;;;;;;22.8;12.5;;;;;;;5.12;100;934.0072;;;;
2023/12/14 09:12:49;;;;;;;23.6;13.8;;;;;;;5.11;100;934.1064;;;;
2023/12/14 09:15:16;;;;;;;21.9;13.5;;;;;;;5.13;100;934.2031;;;;
2023/12/14 09:17:42;;;;;;;21.4;13.1;;;;;;;5.12;100;934.2739;;;;
2023/12/14 09:20:11;;;;;;;17.7;11;;;;;;;5.08;100;934.2509;;;;
2023/12/14 09:22:41;;;;;;;16.2;10.5;;;;;;;5.08;100;934.2752;;;;
2023/12/14 09:25:06;;;;;;;13.4;7.9;;;;;;;5.17;100;934.3247;;;;
2023/12/14 09:27:37;;;;;;;10;7;;;;;;;5.19;100;934.4082;;;;
2023/12/14 09:30:02;;;;;;;10.3;7.6;;;;;;;5.19;100;934.2905;;;;
2023/12/14 09:32:33;;;;;;;8.7;6.7;;;;;;;5.23;100;934.4353;;;;
2023/12/14 09:35:03;;;;;;;7.3;5.6;;;;;;;5.24;100;934.4568;;;;
2023/12/14 09:37:28;;;;;;;6.1;4.8;;;;;;;5.29;100;934.4139;;;;
2023/12/14 09:39:59;;;;;;;4.6;4;;;;;;;5.36;100;934.5069;;;;
2023/12/14 09:42:24;;;;;;;5.2;4;;;;;;;5.4;100;934.4361;;;;
2023/12/14 09:44:54;;;;;;;5.6;3.4;;;;;;;5.5;99.5752;934.5285;;;;
2023/12/14 09:47:19;;;;;;;4.9;3.5;;;;;;;5.53;99.50195;934.4367;;;;
2023/12/14 09:49:45;;;;;;;10.7;6.9;;;;;;;5.57;99.60254;934.5198;;;;
2023/12/14 09:52:10;;;;;;;6.7;4.3;;;;;;;5.56;99.39941;934.4747;;;;
2023/12/14 09:54:37;;;;;;;4.8;4.3;;;;;;;5.6;99.6543;934.6002;;;;
2023/12/14 09:57:04;;;;;;;8.5;6.8;;;;;;;5.65;99.23828;934.5518;;;;
2023/12/14 09:59:29;;;;;;;9;5.7;;;;;;;5.71;99.19629;934.588;;;;
2023/12/14 10:01:58;;;;;;;7.4;5.3;;;;;;;5.73;99.38086;934.6041;;;;
2023/12/14 10:04:24;;;;;;;8.1;6.2;;;;;;;5.77;99.20898;934.6303;;;;
2023/12/14 10:06:52;;;;;;;6.5;5.2;;;;;;;5.82;98.90527;934.6775;;;;
2023/12/14 10:09:18;;;;;;;7.1;5.2;;;;;;;5.88;99.12109;934.598;;;;
2023/12/14 10:11:42;;;;;;;7;4.3;;;;;;;5.89;98.87695;934.6995;;;;
2023/12/14 10:14:07;;;;;;;7.1;4.4;;;;;;;5.88;97.92383;934.6328;;;;
2023/12/14 10:16:33;;;;;;;5.7;3.9;;;;;;;5.89;97.35156;934.6837;;;;
2023/12/14 10:18:59;;;;;;;6.2;3.8;;;;;;;5.87;96.97461;934.6983;;;;
2023/12/14 10:21:23;;;;;;;5;4;;;;;;;5.84;97.7373;934.644;;;;
2023/12/14 10:23:49;;;;;;;7;4.5;;;;;;;5.82;97.61816;934.7194;;;;
2023/12/14 10:26:17;;;;;;;7.3;4.4;;;;;;;5.83;98.02441;934.7218;;;;
2023/12/14 10:28:42;;;;;;;5.6;3.8;;;;;;;5.82;98.35156;934.7264;;;;
2023/12/14 10:31:12;;;;;;;6.4;4.2;;;;;;;5.8;98.30078;934.7367;;;;
2023/12/14 10:33:38;;;;;;;6.2;3.9;;;;;;;5.78;97.95996;934.7419;;;;
2023/12/14 10:36:05;;;;;;;6.3;3.6;;;;;;;5.77;97.74121;934.7543;;;;
2023/12/14 10:38:32;;;;;;;6.3;4.3;;;;;;;5.78;97.79004;934.7965;;;;
2023/12/14 10:41:04;;;;;;;7.5;4.5;;;;;;;5.81;98.23633;934.7506;;;;
2023/12/14 10:43:28;;;;;;;5;4.3;;;;;;;5.81;98.1123;934.8597;;;;
2023/12/14 10:45:54;;;;;;;8.6;5.5;;;;;;;5.79;97.83691;934.8954;;;;
2023/12/14 10:48:20;;;;;;;10.5;8.7;;;;;;;5.76;97.60352;934.912;;;;
2023/12/14 10:50:47;;;;;;;9.5;7.8;;;;;;;5.75;97.91699;934.8367;;;;
2023/12/14 10:55:51;;;;;;;7.3;5.6;;;;;;;5.69;98.31152;934.9714;;;;
2023/12/14 10:58:28;;;;;;;7.2;5.1;;;;;;;5.69;98.85352;934.935;;;;
2023/12/14 11:00:53;;;;;;;6.9;4.9;;;;;;;5.69;98.69531;935.055;;;;
2023/12/14 11:03:18;;;;;;;7.7;5;;;;;;;5.62;99.38965;935.0424;;;;
2023/12/14 11:05:43;;;;;;;6.2;4.4;;;;;;;5.49;99.99023;935.2327;;;;
2023/12/14 11:08:12;;;;;;;6.7;4.6;;;;;;;5.45;100;935.2001;;;;
2023/12/14 11:10:36;;;;;;;7.8;4.8;;;;;;;5.43;100;935.1516;;;;
2023/12/14 11:13:01;;;;;;;8;5.3;;;;;;;5.45;100;935.231;;;;
2023/12/14 11:15:29;;;;;;;7.6;5.5;;;;;;;5.5;100;935.3063;;;;
2023/12/14 11:17:55;;;;;;;6.3;4.4;;;;;;;5.49;100;935.2958;;;;
2023/12/14 11:20:27;;;;;;;6.4;4.9;;;;;;;5.55;99.94824;935.3621;;;;
2023/12/14 11:22:52;;;;;;;13.8;8.1;;;;;;;5.53;99.37988;935.3978;;;;
2023/12/14 11:25:22;;;;;;;15.4;9.1;;;;;;;5.56;98.8125;935.4436;;;;
2023/12/14 11:27:47;;;;;;;13.1;7.2;;;;;;;5.59;98.44629;935.4261;;;;
2023/12/14 11:30:16;;;;;;;8.9;5.5;;;;;;;5.66;98.30469;935.4747;;;;
2023/12/14 11:32:49;;;;;;;5.1;2.9;;;;;;;5.74;97.71387;935.4607;;;;
2023/12/14 11:35:18;;;;;;;3.4;2.8;;;;;;;5.85;97.82715;935.4807;;;;
2023/12/14 11:37:47;;;;;;;1.7;1.4;;;;;;;5.91;97.3125;935.4343;;;;
2023/12/14 11:40:16;;;;;;;1.2;1.1;;;;;;;6.04;96.95508;935.4777;;;;
2023/12/14 11:42:38;;;;;;;1.2;1.1;;;;;;;6.15;97.36621;935.5014;;;;
2023/12/14 11:45:17;;;;;;;0.9;0.8;;;;;;;6.17;95.82031;935.5547;;;;
2023/12/14 11:47:45;;;;;;;2;1;;;;;;;6.1;95.51172;935.5097;;;;
2023/12/14 11:50:11;;;;;;;1.4;0.9;;;;;;;6.12;95.73242;935.5773;;;;
2023/12/14 11:52:35;;;;;;;0.7;0.7;;;;;;;6.12;95.26758;935.5156;;;;
2023/12/14 11:55:00;;;;;;;0.7;0.7;;;;;;;6.06;94.91406;935.6124;;;;
2023/12/14 11:57:29;;;;;;;1.3;0.8;;;;;;;6.01;95.11914;935.6216;;;;
2023/12/14 12:00:01;;;;;;;1.5;0.9;;;;;;;5.93;95.27051;935.5825;;;;
2023/12/14 12:02:26;;;;;;;1.2;1;;;;;;;5.82;95.29102;935.7022;;;;
2023/12/14 12:04:54;;;;;;;2.1;1.1;;;;;;;5.76;95.32227;935.7446;;;;
2023/12/14 12:07:20;;;;;;;1.1;0.8;;;;;;;5.72;96.2627;935.8574;;;;
2023/12/14 12:09:50;;;;;;;0.8;0.8;;;;;;;5.75;96.87891;935.8628;;;;
2023/12/14 12:12:16;;;;;;;0.9;0.7;;;;;;;5.71;96.5752;935.8272;;;;
2023/12/14 12:14:41;;;;;;;1.3;0.8;;;;;;;5.66;96.49707;935.804;;;;
2023/12/14 12:17:09;;;;;;;1.2;0.8;;;;;;;5.64;96.83105;935.8526;;;;
2023/12/14 12:19:35;;;;;;;1.5;1.1;;;;;;;5.64;97.13672;935.8707;;;;
2023/12/14 12:22:00;;;;;;;5.3;2.5;;;;;;;5.66;97.66211;935.8649;;;;
2023/12/14 12:24:32;;;;;;;7.4;4;;;;;;;5.62;98.10254;935.8826;;;;
2023/12/14 12:27:04;;;;;;;4.4;2.5;;;;;;;5.64;98.25391;935.9213;;;;
2023/12/14 12:29:28;;;;;;;4.3;2.3;;;;;;;5.54;98.89648;935.9911;;;;
2023/12/14 12:31:57;;;;;;;2.1;1.9;;;;;;;5.53;99.23145;935.9939;;;;
2023/12/14 12:34:23;;;;;;;2.4;1.7;;;;;;;5.58;99.33594;935.9109;;;;
2023/12/14 12:36:51;;;;;;;3.1;2;;;;;;;5.58;99.41504;935.9392;;;;
2023/12/14 12:39:16;;;;;;;2.8;2.1;;;;;;;5.58;99.44922;936.019;;;;
2023/12/14 12:41:45;;;;;;;2;1.8;;;;;;;5.69;99.11328;936.0204;;;;
2023/12/14 12:44:11;;;;;;;3;2.2;;;;;;;5.61;99.0127;935.9662;;;;
2023/12/14 12:46:35;;;;;;;4.3;3.1;;;;;;;5.62;98.85938;936.0328;;;;
2023/12/14 12:49:04;;;;;;;8.5;5.3;;;;;;;5.61;99.03809;936.039;;;;
2023/12/14 12:51:29;;;;;;;7;5.4;;;;;;;5.65;99.27148;936.017;;;;
2023/12/14 12:54:00;;;;;;;9.5;5.3;;;;;;;5.7;99.04688;936.1012;;;;
2023/12/14 12:56:25;;;;;;;8;4.9;;;;;;;5.66;98.84473;936.0353;;;;
2023/12/14 12:58:53;;;;;;;6.1;4.4;;;;;;;5.67;98.82422;935.9821;;;;
2023/12/14 13:01:18;;;;;;;7.4;4.1;;;;;;;5.69;98.10645;936.1;;;;
2023/12/14 13:03:43;;;;;;;5.8;4.1;;;;;;;5.63;97.69824;936.1539;;;;
2023/12/14 13:06:11;;;;;;;6.7;4.4;;;;;;;5.62;97.89941;936.1512;;;;
2023/12/14 13:08:36;;;;;;;5.7;4;;;;;;;5.65;98.5625;936.1956;;;;
2023/12/14 13:11:03;;;;;;;4.6;3.5;;;;;;;5.72;98.65625;936.2502;;;;
2023/12/14 13:13:29;;;;;;;5.3;3.5;;;;;;;5.75;98.45898;936.3228;;;;
2023/12/14 13:15:54;;;;;;;4.1;3.2;;;;;;;5.77;98.0459;936.3596;;;;
2023/12/14 13:18:22;;;;;;;3.8;2.5;;;;;;;5.76;98.50879;936.4194;;;;
2023/12/14 13:20:47;;;;;;;3.1;2.4;;;;;;;5.67;98.72266;936.4337;;;;
2023/12/14 13:23:19;;;;;;;2.4;2.2;;;;;;;5.65;98.89941;936.4931;;;;
2023/12/14 13:25:48;;;;;;;4.6;2.9;;;;;;;5.67;98.64355;936.5072;;;;
2023/12/14 13:28:13;;;;;;;4.6;3.2;;;;;;;5.7;98.5957;936.4883;;;;
2023/12/14 13:30:41;;;;;;;5.2;3.4;;;;;;;5.69;98.74023;936.5244;;;;
2023/12/14 13:33:13;;;;;;;2.9;2.6;;;;;;;5.67;98.88086;936.5522;;;;
2023/12/14 13:35:36;;;;;;;3.1;2.5;;;;;;;5.65;99.00098;936.5904;;;;
2023/12/14 13:38:05;;;;;;;2.4;2.1;;;;;;;5.61;99.09375;936.692;;;;
2023/12/14 13:40:30;;;;;;;2.3;2;;;;;;;5.63;99.32617;936.6042;;;;
2023/12/14 13:43:01;;;;;;;2;1.8;;;;;;;5.55;99.72266;936.7156;;;;
2023/12/14 13:45:30;;;;;;;2.8;2.3;;;;;;;5.58;99.84375;936.7291;;;;
2023/12/14 13:47:59;;;;;;;4.4;2.8;;;;;;;5.63;99.62891;936.7297;;;;
2023/12/14 13:50:30;;;;;;;3.9;2.6;;;;;;;5.57;99.80859;936.7698;;;;
2023/12/14 13:52:55;;;;;;;4;2.7;;;;;;;5.54;99.84473;936.7997;;;;
2023/12/14 13:55:21;;;;;;;5.4;3.4;;;;;;;5.55;99.99316;936.8506;;;;
2023/12/14 13:57:49;;;;;;;7.1;4.2;;;;;;;5.58;99.69531;936.8379;;;;
2023/12/14 14:00:16;;;;;;;6.6;4.4;;;;;;;5.58;99.53711;936.9002;;;;
2023/12/14 14:02:45;;;;;;;5.6;4.2;;;;;;;5.53;99.85352;937.0245;;;;
2023/12/14 14:05:12;;;;;;;6.7;4.6;;;;;;;5.55;99.90332;937.1641;;;;
2023/12/14 14:07:37;;;;;;;6.7;4.8;;;;;;;5.49;100;937.2572;;;;
2023/12/14 14:10:03;;;;;;;8.4;6;;;;;;;5.54;100;937.3677;;;;
2023/12/14 14:12:33;;;;;;;7.2;5.3;;;;;;;5.57;100;937.3898;;;;
2023/12/14 14:15:03;;;;;;;7.8;5.7;;;;;;;5.52;100;937.5021;;;;
2023/12/14 14:17:32;;;;;;;9.6;5.9;;;;;;;5.49;100;937.6102;;;;
2023/12/14 14:20:01;;;;;;;24.9;16.2;;;;;;;5.42;100;937.6163;;;;
2023/12/14 14:22:32;;;;;;;14.8;9.3;;;;;;;5.36;100;937.6333;;;;
2023/12/14 14:25:01;;;;;;;8.2;5.5;;;;;;;5.31;100;937.7502;;;;
2023/12/14 14:27:26;;;;;;;6.4;4.3;;;;;;;5.26;100;937.8072;;;;
2023/12/14 14:29:56;;;;;;;5.7;4.2;;;;;;;5.24;100;937.8691;;;;
2023/12/14 14:32:21;;;;;;;6.6;3.8;;;;;;;5.2;100;937.952;;;;
2023/12/14 14:34:50;;;;;;;6.2;4.6;;;;;;;5.39;100;937.938;;;;
2023/12/14 14:37:19;;;;;;;6.8;4.3;;;;;;;5.31;100;937.9398;;;;
2023/12/14 14:39:50;;;;;;;7.6;4.8;;;;;;;5.3;100;937.9553;;;;
2023/12/14 14:42:23;;;;;;;10.5;7.3;;;;;;;5.4;99.91309;938.0291;;;;
2023/12/14 14:44:48;;;;;;;12.3;7.3;;;;;;;5.33;99.44629;938.0918;;;;
2023/12/14 14:47:17;;;;;;;11.1;7.2;;;;;;;5.32;99.35449;938.1359;;;;
2023/12/14 14:49:43;;;;;;;6.2;4.2;;;;;;;5.27;99.47656;938.1423;;;;
2023/12/14 14:52:12;;;;;;;8.4;6.6;;;;;;;5.19;99.24414;938.1121;;;;
2023/12/14 14:54:38;;;;;;;8.5;7.4;;;;;;;5.13;99.64844;938.1735;;;;
2023/12/14 14:57:05;;;;;;;6.7;5.3;;;;;;;5.16;99.8916;938.2241;;;;
2023/12/14 14:59:34;;;;;;;4.1;3.3;;;;;;;5.11;99.79102;938.3379;;;;
2023/12/14 15:02:01;;;;;;;3;2.4;;;;;;;5.18;99.625;938.4258;;;;
2023/12/14 15:04:29;;;;;;;7.4;4.9;;;;;;;5.15;99.47461;938.4637;;;;
2023/12/14 15:06:54;;;;;;;2.2;2;;;;;;;5.13;99.62598;938.5223;;;;
2023/12/14 15:09:20;;;;;;;1.7;1.5;;;;;;;5.14;99.35742;938.4919;;;;
2023/12/14 15:11:44;;;;;;;1.4;1.3;;;;;;;5.14;99.33301;938.6386;;;;
2023/12/14 15:14:12;;;;;;;1;1;;;;;;;5.08;99.71484;938.6605;;;;
2023/12/14 15:16:35;;;;;;;1.1;1;;;;;;;5.06;99.67676;938.6458;;;;
2023/12/14 15:19:00;;;;;;;2;1.1;;;;;;;5.01;99.74512;938.6797;;;;